sensor_id;sensor_type;location;lat;lon;timestamp;P1;durP1;ratioP1;P2;durP2;ratioP2
76053;SDS011;64752;48.870;9.082;2023-02-23T00:01:52;28.55;;;18.10;;
76053;SDS011;64752;48.870;9.082;2023-02-23T00:04:17;27.63;;;18.73;;
76053;SDS011;64752;48.870;9.082;2023-02-23T00:06:43;32.05;;;18.92;;
76053;SDS011;64752;48.870;9.082;2023-02-23T00:09:08;30.23;;;18.52;;
76053;SDS011;64752;48.870;9.082;2023-02-23T00:14:11;28.45;;;18.05;;
76053;SDS011;64752;48.870;9.082;2023-02-23T00:16:36;31.25;;;18.88;;
76053;SDS011;64752;48.870;9.082;2023-02-23T00:19:02;29.50;;;18.20;;
76053;SDS011;64752;48.870;9.082;2023-02-23T00:21:31;26.35;;;18.33;;
76053;SDS011;64752;48.870;9.082;2023-02-23T00:24:03;31.30;;;18.70;;
76053;SDS011;64752;48.870;9.082;2023-02-23T00:26:32;29.17;;;18.63;;
76053;SDS011;64752;48.870;9.082;2023-02-23T00:29:01;29.02;;;19.08;;
76053;SDS011;64752;48.870;9.082;2023-02-23T00:31:27;30.13;;;19.73;;
76053;SDS011;64752;48.870;9.082;2023-02-23T00:33:53;30.75;;;19.27;;
76053;SDS011;64752;48.870;9.082;2023-02-23T00:36:20;29.20;;;20.97;;
76053;SDS011;64752;48.870;9.082;2023-02-23T00:38:46;28.73;;;19.63;;
76053;SDS011;64752;48.870;9.082;2023-02-23T00:41:12;32.75;;;20.23;;
76053;SDS011;64752;48.870;9.082;2023-02-23T00:43:39;28.13;;;18.52;;
76053;SDS011;64752;48.870;9.082;2023-02-23T00:46:14;31.80;;;19.52;;
76053;SDS011;64752;48.870;9.082;2023-02-23T00:48:41;27.05;;;18.88;;
76053;SDS011;64752;48.870;9.082;2023-02-23T00:51:06;25.77;;;19.92;;
76053;SDS011;64752;48.870;9.082;2023-02-23T00:53:32;30.23;;;20.13;;
76053;SDS011;64752;48.870;9.082;2023-02-23T00:55:57;30.60;;;20.88;;
76053;SDS011;64752;48.870;9.082;2023-02-23T00:58:23;31.08;;;21.38;;
76053;SDS011;64752;48.870;9.082;2023-02-23T01:00:48;33.88;;;20.98;;
76053;SDS011;64752;48.870;9.082;2023-02-23T01:03:14;36.15;;;22.95;;
76053;SDS011;64752;48.870;9.082;2023-02-23T01:05:39;31.65;;;21.90;;
76053;SDS011;64752;48.870;9.082;2023-02-23T01:08:04;32.13;;;22.30;;
76053;SDS011;64752;48.870;9.082;2023-02-23T01:10:33;35.47;;;23.20;;
76053;SDS011;64752;48.870;9.082;2023-02-23T01:13:00;34.35;;;23.55;;
76053;SDS011;64752;48.870;9.082;2023-02-23T01:15:26;36.92;;;23.95;;
76053;SDS011;64752;48.870;9.082;2023-02-23T01:17:51;36.92;;;24.70;;
76053;SDS011;64752;48.870;9.082;2023-02-23T01:20:16;38.27;;;25.00;;
76053;SDS011;64752;48.870;9.082;2023-02-23T01:22:46;37.80;;;26.33;;
76053;SDS011;64752;48.870;9.082;2023-02-23T01:25:12;35.70;;;25.67;;
76053;SDS011;64752;48.870;9.082;2023-02-23T01:27:39;34.92;;;24.30;;
76053;SDS011;64752;48.870;9.082;2023-02-23T01:30:04;35.63;;;24.77;;
76053;SDS011;64752;48.870;9.082;2023-02-23T01:32:29;38.15;;;25.02;;
76053;SDS011;64752;48.870;9.082;2023-02-23T01:34:55;39.13;;;24.77;;
76053;SDS011;64752;48.870;9.082;2023-02-23T01:37:20;39.83;;;24.87;;
76053;SDS011;64752;48.870;9.082;2023-02-23T01:39:45;40.05;;;26.15;;
76053;SDS011;64752;48.870;9.082;2023-02-23T01:42:11;40.25;;;26.60;;
76053;SDS011;64752;48.870;9.082;2023-02-23T01:47:03;36.55;;;25.05;;
76053;SDS011;64752;48.870;9.082;2023-02-23T01:49:29;42.17;;;26.15;;
76053;SDS011;64752;48.870;9.082;2023-02-23T01:54:32;40.63;;;26.02;;
76053;SDS011;64752;48.870;9.082;2023-02-23T01:57:00;44.88;;;28.27;;
76053;SDS011;64752;48.870;9.082;2023-02-23T01:59:30;41.03;;;28.08;;
76053;SDS011;64752;48.870;9.082;2023-02-23T02:01:59;39.45;;;27.10;;
76053;SDS011;64752;48.870;9.082;2023-02-23T02:04:25;41.40;;;27.92;;
76053;SDS011;64752;48.870;9.082;2023-02-23T02:06:51;45.45;;;29.08;;
76053;SDS011;64752;48.870;9.082;2023-02-23T02:09:18;37.58;;;27.27;;
76053;SDS011;64752;48.870;9.082;2023-02-23T02:11:44;44.85;;;29.27;;
76053;SDS011;64752;48.870;9.082;2023-02-23T02:20:10;42.70;;;28.38;;
76053;SDS011;64752;48.870;9.082;2023-02-23T02:36:00;41.38;;;28.63;;
76053;SDS011;64752;48.870;9.082;2023-02-23T02:38:35;45.67;;;30.35;;
76053;SDS011;64752;48.870;9.082;2023-02-23T02:41:14;43.93;;;30.10;;
76053;SDS011;64752;48.870;9.082;2023-02-23T02:43:50;44.95;;;29.58;;
76053;SDS011;64752;48.870;9.082;2023-02-23T02:46:37;40.13;;;28.92;;
76053;SDS011;64752;48.870;9.082;2023-02-23T02:54:21;34.63;;;23.80;;
76053;SDS011;64752;48.870;9.082;2023-02-23T02:59:13;39.38;;;24.17;;
76053;SDS011;64752;48.870;9.082;2023-02-23T03:01:57;41.97;;;26.55;;
76053;SDS011;64752;48.870;9.082;2023-02-23T03:04:41;40.72;;;26.30;;
76053;SDS011;64752;48.870;9.082;2023-02-23T03:07:28;41.42;;;29.50;;
76053;SDS011;64752;48.870;9.082;2023-02-23T03:10:14;41.15;;;28.52;;
76053;SDS011;64752;48.870;9.082;2023-02-23T03:16:00;44.78;;;30.10;;
76053;SDS011;64752;48.870;9.082;2023-02-23T03:21:35;42.08;;;28.45;;
76053;SDS011;64752;48.870;9.082;2023-02-23T03:27:22;44.83;;;28.55;;
76053;SDS011;64752;48.870;9.082;2023-02-23T03:32:57;44.70;;;27.05;;
76053;SDS011;64752;48.870;9.082;2023-02-23T03:41:16;38.83;;;27.67;;
76053;SDS011;64752;48.870;9.082;2023-02-23T03:44:05;39.20;;;28.13;;
76053;SDS011;64752;48.870;9.082;2023-02-23T03:46:51;36.85;;;26.42;;
76053;SDS011;64752;48.870;9.082;2023-02-23T03:49:36;36.38;;;25.50;;
76053;SDS011;64752;48.870;9.082;2023-02-23T03:52:23;36.92;;;26.42;;
76053;SDS011;64752;48.870;9.082;2023-02-23T03:55:10;40.97;;;27.20;;
76053;SDS011;64752;48.870;9.082;2023-02-23T03:57:56;40.70;;;26.40;;
76053;SDS011;64752;48.870;9.082;2023-02-23T04:00:43;39.10;;;25.83;;
76053;SDS011;64752;48.870;9.082;2023-02-23T04:03:28;36.75;;;27.08;;
76053;SDS011;64752;48.870;9.082;2023-02-23T04:06:14;43.60;;;28.70;;
76053;SDS011;64752;48.870;9.082;2023-02-23T04:09:00;42.20;;;28.50;;
76053;SDS011;64752;48.870;9.082;2023-02-23T04:11:47;41.85;;;27.08;;
76053;SDS011;64752;48.870;9.082;2023-02-23T04:14:35;43.20;;;27.17;;
76053;SDS011;64752;48.870;9.082;2023-02-23T04:17:01;40.90;;;27.52;;
76053;SDS011;64752;48.870;9.082;2023-02-23T04:19:28;42.35;;;28.08;;
76053;SDS011;64752;48.870;9.082;2023-02-23T04:21:53;43.33;;;27.60;;
76053;SDS011;64752;48.870;9.082;2023-02-23T04:24:18;42.20;;;27.52;;
76053;SDS011;64752;48.870;9.082;2023-02-23T04:26:43;41.55;;;27.42;;
76053;SDS011;64752;48.870;9.082;2023-02-23T04:29:10;36.95;;;26.55;;
76053;SDS011;64752;48.870;9.082;2023-02-23T04:31:35;39.88;;;27.55;;
76053;SDS011;64752;48.870;9.082;2023-02-23T04:34:00;41.90;;;27.38;;
76053;SDS011;64752;48.870;9.082;2023-02-23T04:36:25;38.88;;;28.17;;
76053;SDS011;64752;48.870;9.082;2023-02-23T04:38:51;41.85;;;29.20;;
76053;SDS011;64752;48.870;9.082;2023-02-23T04:41:17;41.63;;;27.60;;
76053;SDS011;64752;48.870;9.082;2023-02-23T04:43:43;39.03;;;26.83;;
76053;SDS011;64752;48.870;9.082;2023-02-23T04:46:09;44.00;;;29.07;;
76053;SDS011;64752;48.870;9.082;2023-02-23T04:48:34;37.93;;;26.90;;
76053;SDS011;64752;48.870;9.082;2023-02-23T04:51:00;36.53;;;26.10;;
76053;SDS011;64752;48.870;9.082;2023-02-23T04:53:25;39.22;;;28.42;;
76053;SDS011;64752;48.870;9.082;2023-02-23T04:55:51;36.28;;;26.45;;
76053;SDS011;64752;48.870;9.082;2023-02-23T04:58:16;40.30;;;29.03;;
76053;SDS011;64752;48.870;9.082;2023-02-23T05:00:41;46.30;;;28.95;;
76053;SDS011;64752;48.870;9.082;2023-02-23T05:03:06;43.63;;;30.58;;
76053;SDS011;64752;48.870;9.082;2023-02-23T05:05:31;76.95;;;52.17;;
76053;SDS011;64752;48.870;9.082;2023-02-23T05:07:59;63.78;;;43.70;;
76053;SDS011;64752;48.870;9.082;2023-02-23T05:10:25;52.47;;;35.08;;
76053;SDS011;64752;48.870;9.082;2023-02-23T05:12:50;50.33;;;33.97;;
76053;SDS011;64752;48.870;9.082;2023-02-23T05:15:15;42.92;;;31.23;;
76053;SDS011;64752;48.870;9.082;2023-02-23T05:17:41;48.65;;;31.88;;
76053;SDS011;64752;48.870;9.082;2023-02-23T05:20:07;48.67;;;32.55;;
76053;SDS011;64752;48.870;9.082;2023-02-23T05:22:32;50.25;;;33.75;;
76053;SDS011;64752;48.870;9.082;2023-02-23T05:24:58;52.30;;;33.17;;
76053;SDS011;64752;48.870;9.082;2023-02-23T05:27:23;49.83;;;32.60;;
76053;SDS011;64752;48.870;9.082;2023-02-23T05:29:48;45.25;;;31.13;;
76053;SDS011;64752;48.870;9.082;2023-02-23T05:32:13;51.90;;;32.40;;
76053;SDS011;64752;48.870;9.082;2023-02-23T05:34:39;49.28;;;32.28;;
76053;SDS011;64752;48.870;9.082;2023-02-23T05:37:05;46.08;;;32.05;;
76053;SDS011;64752;48.870;9.082;2023-02-23T05:39:30;52.05;;;31.90;;
76053;SDS011;64752;48.870;9.082;2023-02-23T05:41:55;50.17;;;32.58;;
76053;SDS011;64752;48.870;9.082;2023-02-23T05:44:21;50.92;;;30.88;;
76053;SDS011;64752;48.870;9.082;2023-02-23T05:46:46;47.58;;;33.28;;
76053;SDS011;64752;48.870;9.082;2023-02-23T05:49:11;48.85;;;32.95;;
76053;SDS011;64752;48.870;9.082;2023-02-23T05:51:36;45.17;;;31.20;;
76053;SDS011;64752;48.870;9.082;2023-02-23T05:54:10;42.58;;;30.13;;
76053;SDS011;64752;48.870;9.082;2023-02-23T05:56:39;50.40;;;30.48;;
76053;SDS011;64752;48.870;9.082;2023-02-23T05:59:05;47.22;;;30.20;;
76053;SDS011;64752;48.870;9.082;2023-02-23T06:01:30;42.08;;;29.90;;
76053;SDS011;64752;48.870;9.082;2023-02-23T06:03:56;50.55;;;31.70;;
76053;SDS011;64752;48.870;9.082;2023-02-23T06:06:21;46.83;;;31.23;;
76053;SDS011;64752;48.870;9.082;2023-02-23T06:08:48;42.30;;;30.00;;
76053;SDS011;64752;48.870;9.082;2023-02-23T06:11:13;48.38;;;32.10;;
76053;SDS011;64752;48.870;9.082;2023-02-23T06:13:38;45.28;;;31.08;;
76053;SDS011;64752;48.870;9.082;2023-02-23T06:16:04;47.15;;;32.47;;
76053;SDS011;64752;48.870;9.082;2023-02-23T06:18:29;48.97;;;31.42;;
76053;SDS011;64752;48.870;9.082;2023-02-23T06:20:57;49.97;;;32.28;;
76053;SDS011;64752;48.870;9.082;2023-02-23T06:23:23;47.05;;;33.78;;
76053;SDS011;64752;48.870;9.082;2023-02-23T06:25:48;52.70;;;34.40;;
76053;SDS011;64752;48.870;9.082;2023-02-23T06:28:14;58.70;;;36.03;;
76053;SDS011;64752;48.870;9.082;2023-02-23T06:30:39;51.47;;;33.80;;
76053;SDS011;64752;48.870;9.082;2023-02-23T06:33:05;57.55;;;34.88;;
76053;SDS011;64752;48.870;9.082;2023-02-23T06:35:30;56.83;;;34.55;;
76053;SDS011;64752;48.870;9.082;2023-02-23T06:37:56;57.88;;;34.65;;
76053;SDS011;64752;48.870;9.082;2023-02-23T06:40:21;53.63;;;34.25;;
76053;SDS011;64752;48.870;9.082;2023-02-23T06:42:46;53.97;;;35.38;;
76053;SDS011;64752;48.870;9.082;2023-02-23T06:45:12;61.83;;;35.92;;
76053;SDS011;64752;48.870;9.082;2023-02-23T06:47:38;60.37;;;36.30;;
76053;SDS011;64752;48.870;9.082;2023-02-23T06:50:07;61.67;;;35.33;;
76053;SDS011;64752;48.870;9.082;2023-02-23T06:52:32;56.53;;;35.78;;
76053;SDS011;64752;48.870;9.082;2023-02-23T06:54:58;72.90;;;38.08;;
76053;SDS011;64752;48.870;9.082;2023-02-23T06:57:23;73.40;;;37.77;;
76053;SDS011;64752;48.870;9.082;2023-02-23T06:59:48;54.63;;;35.60;;
76053;SDS011;64752;48.870;9.082;2023-02-23T07:02:13;57.13;;;33.38;;
76053;SDS011;64752;48.870;9.082;2023-02-23T07:04:39;66.82;;;32.67;;
76053;SDS011;64752;48.870;9.082;2023-02-23T07:07:04;54.35;;;31.95;;
76053;SDS011;64752;48.870;9.082;2023-02-23T07:09:29;60.38;;;32.90;;
76053;SDS011;64752;48.870;9.082;2023-02-23T07:11:55;47.35;;;31.17;;
76053;SDS011;64752;48.870;9.082;2023-02-23T07:14:20;58.20;;;33.53;;
76053;SDS011;64752;48.870;9.082;2023-02-23T07:16:45;70.25;;;37.25;;
76053;SDS011;64752;48.870;9.082;2023-02-23T07:19:10;53.85;;;32.10;;
76053;SDS011;64752;48.870;9.082;2023-02-23T07:21:36;49.10;;;32.13;;
76053;SDS011;64752;48.870;9.082;2023-02-23T07:24:01;55.10;;;31.70;;
76053;SDS011;64752;48.870;9.082;2023-02-23T07:26:28;47.63;;;28.75;;
76053;SDS011;64752;48.870;9.082;2023-02-23T07:28:54;44.72;;;28.88;;
76053;SDS011;64752;48.870;9.082;2023-02-23T07:31:19;48.03;;;29.90;;
76053;SDS011;64752;48.870;9.082;2023-02-23T07:33:44;53.08;;;32.00;;
76053;SDS011;64752;48.870;9.082;2023-02-23T07:36:09;51.27;;;28.90;;
76053;SDS011;64752;48.870;9.082;2023-02-23T07:38:35;46.53;;;27.85;;
76053;SDS011;64752;48.870;9.082;2023-02-23T07:41:00;48.70;;;27.60;;
76053;SDS011;64752;48.870;9.082;2023-02-23T07:43:26;38.95;;;23.55;;
76053;SDS011;64752;48.870;9.082;2023-02-23T07:45:51;37.10;;;23.73;;
76053;SDS011;64752;48.870;9.082;2023-02-23T07:48:17;42.42;;;23.85;;
76053;SDS011;64752;48.870;9.082;2023-02-23T07:50:48;34.53;;;22.25;;
76053;SDS011;64752;48.870;9.082;2023-02-23T07:53:13;34.13;;;21.67;;
76053;SDS011;64752;48.870;9.082;2023-02-23T07:55:39;40.53;;;21.73;;
76053;SDS011;64752;48.870;9.082;2023-02-23T07:58:04;38.00;;;23.63;;
76053;SDS011;64752;48.870;9.082;2023-02-23T08:00:30;34.38;;;20.63;;
76053;SDS011;64752;48.870;9.082;2023-02-23T08:02:58;28.20;;;19.73;;
76053;SDS011;64752;48.870;9.082;2023-02-23T08:05:25;29.48;;;19.95;;
76053;SDS011;64752;48.870;9.082;2023-02-23T08:07:50;29.33;;;18.80;;
76053;SDS011;64752;48.870;9.082;2023-02-23T08:10:16;28.88;;;19.35;;
76053;SDS011;64752;48.870;9.082;2023-02-23T08:12:41;25.42;;;18.30;;
76053;SDS011;64752;48.870;9.082;2023-02-23T08:15:07;28.85;;;18.85;;
76053;SDS011;64752;48.870;9.082;2023-02-23T08:17:33;27.85;;;18.65;;
76053;SDS011;64752;48.870;9.082;2023-02-23T08:20:01;31.67;;;19.42;;
76053;SDS011;64752;48.870;9.082;2023-02-23T08:22:30;28.70;;;17.88;;
76053;SDS011;64752;48.870;9.082;2023-02-23T08:24:55;27.35;;;17.02;;
76053;SDS011;64752;48.870;9.082;2023-02-23T08:27:20;26.03;;;16.67;;
76053;SDS011;64752;48.870;9.082;2023-02-23T08:29:45;28.27;;;16.88;;
76053;SDS011;64752;48.870;9.082;2023-02-23T08:32:10;20.25;;;14.18;;
76053;SDS011;64752;48.870;9.082;2023-02-23T08:34:37;33.25;;;18.65;;
76053;SDS011;64752;48.870;9.082;2023-02-23T08:37:02;25.55;;;17.17;;
76053;SDS011;64752;48.870;9.082;2023-02-23T08:39:27;23.00;;;14.88;;
76053;SDS011;64752;48.870;9.082;2023-02-23T08:41:53;25.50;;;14.43;;
76053;SDS011;64752;48.870;9.082;2023-02-23T08:44:19;21.73;;;14.38;;
76053;SDS011;64752;48.870;9.082;2023-02-23T08:46:44;23.20;;;13.40;;
76053;SDS011;64752;48.870;9.082;2023-02-23T08:49:12;22.08;;;14.38;;
76053;SDS011;64752;48.870;9.082;2023-02-23T08:51:37;20.70;;;11.85;;
76053;SDS011;64752;48.870;9.082;2023-02-23T08:54:03;17.73;;;12.73;;
76053;SDS011;64752;48.870;9.082;2023-02-23T08:56:28;19.90;;;11.87;;
76053;SDS011;64752;48.870;9.082;2023-02-23T08:58:53;19.13;;;11.90;;
76053;SDS011;64752;48.870;9.082;2023-02-23T09:01:19;16.42;;;11.30;;
76053;SDS011;64752;48.870;9.082;2023-02-23T09:03:47;20.25;;;13.32;;
76053;SDS011;64752;48.870;9.082;2023-02-23T09:06:17;26.30;;;11.38;;
76053;SDS011;64752;48.870;9.082;2023-02-23T09:08:43;17.80;;;10.93;;
76053;SDS011;64752;48.870;9.082;2023-02-23T09:11:08;17.70;;;10.32;;
76053;SDS011;64752;48.870;9.082;2023-02-23T09:13:33;18.60;;;11.35;;
76053;SDS011;64752;48.870;9.082;2023-02-23T09:15:59;20.42;;;10.48;;
76053;SDS011;64752;48.870;9.082;2023-02-23T09:18:27;14.68;;;10.25;;
76053;SDS011;64752;48.870;9.082;2023-02-23T09:20:53;14.02;;;9.63;;
76053;SDS011;64752;48.870;9.082;2023-02-23T09:23:21;15.60;;;10.05;;
76053;SDS011;64752;48.870;9.082;2023-02-23T09:25:48;13.85;;;9.23;;
76053;SDS011;64752;48.870;9.082;2023-02-23T09:28:14;19.58;;;8.60;;
76053;SDS011;64752;48.870;9.082;2023-02-23T09:30:40;14.20;;;9.23;;
76053;SDS011;64752;48.870;9.082;2023-02-23T09:33:06;13.52;;;8.18;;
76053;SDS011;64752;48.870;9.082;2023-02-23T09:35:34;11.52;;;7.88;;
76053;SDS011;64752;48.870;9.082;2023-02-23T09:38:00;14.43;;;6.60;;
76053;SDS011;64752;48.870;9.082;2023-02-23T09:40:33;9.88;;;6.47;;
76053;SDS011;64752;48.870;9.082;2023-02-23T09:43:18;12.93;;;6.88;;
76053;SDS011;64752;48.870;9.082;2023-02-23T09:45:59;15.32;;;6.82;;
76053;SDS011;64752;48.870;9.082;2023-02-23T09:48:32;11.77;;;6.30;;
76053;SDS011;64752;48.870;9.082;2023-02-23T09:50:58;11.38;;;6.40;;
76053;SDS011;64752;48.870;9.082;2023-02-23T09:55:58;9.52;;;6.07;;
76053;SDS011;64752;48.870;9.082;2023-02-23T09:58:28;10.70;;;6.03;;
76053;SDS011;64752;48.870;9.082;2023-02-23T10:03:27;10.48;;;6.20;;
76053;SDS011;64752;48.870;9.082;2023-02-23T10:05:55;11.48;;;5.80;;
76053;SDS011;64752;48.870;9.082;2023-02-23T10:11:27;14.75;;;6.28;;
76053;SDS011;64752;48.870;9.082;2023-02-23T10:19:11;10.70;;;6.03;;
76053;SDS011;64752;48.870;9.082;2023-02-23T10:21:39;9.20;;;5.68;;
76053;SDS011;64752;48.870;9.082;2023-02-23T10:24:09;9.10;;;5.18;;
76053;SDS011;64752;48.870;9.082;2023-02-23T10:26:37;10.27;;;5.53;;
76053;SDS011;64752;48.870;9.082;2023-02-23T10:29:06;11.07;;;5.78;;
76053;SDS011;64752;48.870;9.082;2023-02-23T10:31:40;10.93;;;5.30;;
76053;SDS011;64752;48.870;9.082;2023-02-23T10:34:14;9.07;;;5.38;;
76053;SDS011;64752;48.870;9.082;2023-02-23T10:39:07;12.13;;;5.33;;
76053;SDS011;64752;48.870;9.082;2023-02-23T10:41:35;5.07;;;3.27;;
76053;SDS011;64752;48.870;9.082;2023-02-23T10:44:01;7.35;;;3.95;;
76053;SDS011;64752;48.870;9.082;2023-02-23T10:46:37;9.70;;;4.10;;
76053;SDS011;64752;48.870;9.082;2023-02-23T10:49:11;9.25;;;4.05;;
76053;SDS011;64752;48.870;9.082;2023-02-23T10:51:39;10.00;;;4.80;;
76053;SDS011;64752;48.870;9.082;2023-02-23T10:56:50;8.18;;;3.97;;
76053;SDS011;64752;48.870;9.082;2023-02-23T10:59:19;7.28;;;3.58;;
76053;SDS011;64752;48.870;9.082;2023-02-23T11:01:46;9.40;;;4.25;;
76053;SDS011;64752;48.870;9.082;2023-02-23T11:04:18;5.53;;;3.57;;
76053;SDS011;64752;48.870;9.082;2023-02-23T11:06:45;7.97;;;4.05;;
76053;SDS011;64752;48.870;9.082;2023-02-23T11:11:37;6.97;;;4.47;;
76053;SDS011;64752;48.870;9.082;2023-02-23T11:14:02;7.43;;;4.00;;
76053;SDS011;64752;48.870;9.082;2023-02-23T11:16:39;9.25;;;4.15;;
76053;SDS011;64752;48.870;9.082;2023-02-23T11:19:06;8.23;;;4.33;;
76053;SDS011;64752;48.870;9.082;2023-02-23T11:21:38;10.95;;;4.60;;
76053;SDS011;64752;48.870;9.082;2023-02-23T11:26:47;9.35;;;4.60;;
76053;SDS011;64752;48.870;9.082;2023-02-23T11:31:39;9.37;;;4.30;;
76053;SDS011;64752;48.870;9.082;2023-02-23T11:34:09;9.00;;;4.22;;
76053;SDS011;64752;48.870;9.082;2023-02-23T11:36:43;8.63;;;4.38;;
76053;SDS011;64752;48.870;9.082;2023-02-23T11:39:20;9.67;;;4.27;;
76053;SDS011;64752;48.870;9.082;2023-02-23T11:44:35;9.63;;;4.18;;
76053;SDS011;64752;48.870;9.082;2023-02-23T11:47:00;12.07;;;4.53;;
76053;SDS011;64752;48.870;9.082;2023-02-23T11:49:28;9.18;;;4.10;;
76053;SDS011;64752;48.870;9.082;2023-02-23T11:51:55;11.35;;;4.53;;
76053;SDS011;64752;48.870;9.082;2023-02-23T11:54:32;12.83;;;4.67;;
76053;SDS011;64752;48.870;9.082;2023-02-23T11:56:58;10.43;;;4.25;;
76053;SDS011;64752;48.870;9.082;2023-02-23T11:59:47;7.35;;;3.75;;
76053;SDS011;64752;48.870;9.082;2023-02-23T12:04:43;8.38;;;3.80;;
76053;SDS011;64752;48.870;9.082;2023-02-23T12:07:28;7.78;;;3.33;;
76053;SDS011;64752;48.870;9.082;2023-02-23T12:10:02;9.77;;;4.03;;
76053;SDS011;64752;48.870;9.082;2023-02-23T12:12:30;6.30;;;3.63;;
76053;SDS011;64752;48.870;9.082;2023-02-23T12:15:00;8.45;;;3.80;;
76053;SDS011;64752;48.870;9.082;2023-02-23T12:17:48;9.23;;;4.07;;
76053;SDS011;64752;48.870;9.082;2023-02-23T12:20:16;11.77;;;3.92;;
76053;SDS011;64752;48.870;9.082;2023-02-23T12:22:46;7.18;;;3.67;;
76053;SDS011;64752;48.870;9.082;2023-02-23T12:27:50;8.55;;;4.22;;
76053;SDS011;64752;48.870;9.082;2023-02-23T12:30:35;12.50;;;5.72;;
76053;SDS011;64752;48.870;9.082;2023-02-23T12:33:17;8.68;;;4.72;;
76053;SDS011;64752;48.870;9.082;2023-02-23T12:35:52;6.88;;;4.03;;
76053;SDS011;64752;48.870;9.082;2023-02-23T12:40:51;8.00;;;4.50;;
76053;SDS011;64752;48.870;9.082;2023-02-23T12:51:39;15.00;;;5.13;;
76053;SDS011;64752;48.870;9.082;2023-02-23T12:54:08;7.00;;;4.13;;
76053;SDS011;64752;48.870;9.082;2023-02-23T13:02:00;6.70;;;3.58;;
76053;SDS011;64752;48.870;9.082;2023-02-23T13:04:48;7.88;;;4.00;;
76053;SDS011;64752;48.870;9.082;2023-02-23T13:12:27;11.25;;;3.72;;
76053;SDS011;64752;48.870;9.082;2023-02-23T13:17:39;13.35;;;4.38;;
76053;SDS011;64752;48.870;9.082;2023-02-23T13:20:11;8.52;;;4.22;;
76053;SDS011;64752;48.870;9.082;2023-02-23T13:22:44;14.13;;;4.13;;
76053;SDS011;64752;48.870;9.082;2023-02-23T13:25:25;7.30;;;3.90;;
76053;SDS011;64752;48.870;9.082;2023-02-23T13:27:54;9.57;;;4.25;;
76053;SDS011;64752;48.870;9.082;2023-02-23T13:30:20;7.72;;;3.83;;
76053;SDS011;64752;48.870;9.082;2023-02-23T13:32:46;7.20;;;3.70;;
76053;SDS011;64752;48.870;9.082;2023-02-23T13:35:15;10.70;;;3.93;;
76053;SDS011;64752;48.870;9.082;2023-02-23T13:37:45;9.68;;;3.67;;
76053;SDS011;64752;48.870;9.082;2023-02-23T13:53:05;11.50;;;4.13;;
76053;SDS011;64752;48.870;9.082;2023-02-23T13:55:32;8.27;;;3.40;;
76053;SDS011;64752;48.870;9.082;2023-02-23T13:58:04;7.70;;;3.83;;
76053;SDS011;64752;48.870;9.082;2023-02-23T14:00:30;13.40;;;4.25;;
76053;SDS011;64752;48.870;9.082;2023-02-23T14:02:55;8.33;;;4.23;;
76053;SDS011;64752;48.870;9.082;2023-02-23T14:05:22;13.87;;;5.93;;
76053;SDS011;64752;48.870;9.082;2023-02-23T14:07:58;7.55;;;4.22;;
76053;SDS011;64752;48.870;9.082;2023-02-23T14:10:27;10.05;;;4.00;;
76053;SDS011;64752;48.870;9.082;2023-02-23T14:17:59;9.33;;;4.57;;
76053;SDS011;64752;48.870;9.082;2023-02-23T14:23:04;9.27;;;4.13;;
76053;SDS011;64752;48.870;9.082;2023-02-23T14:28:02;8.68;;;4.15;;
76053;SDS011;64752;48.870;9.082;2023-02-23T14:30:43;15.02;;;4.55;;
76053;SDS011;64752;48.870;9.082;2023-02-23T14:35:59;10.10;;;4.63;;
76053;SDS011;64752;48.870;9.082;2023-02-23T14:40:51;10.30;;;4.33;;
76053;SDS011;64752;48.870;9.082;2023-02-23T14:45:57;12.73;;;5.50;;
76053;SDS011;64752;48.870;9.082;2023-02-23T14:48:24;11.55;;;5.72;;
76053;SDS011;64752;48.870;9.082;2023-02-23T14:50:50;10.27;;;5.38;;
76053;SDS011;64752;48.870;9.082;2023-02-23T14:53:17;9.30;;;4.60;;
76053;SDS011;64752;48.870;9.082;2023-02-23T14:55:43;9.82;;;4.60;;
76053;SDS011;64752;48.870;9.082;2023-02-23T15:00:47;14.15;;;5.90;;
76053;SDS011;64752;48.870;9.082;2023-02-23T15:03:13;12.00;;;6.15;;
76053;SDS011;64752;48.870;9.082;2023-02-23T15:05:42;11.77;;;6.47;;
76053;SDS011;64752;48.870;9.082;2023-02-23T15:08:08;15.68;;;8.30;;
76053;SDS011;64752;48.870;9.082;2023-02-23T15:10:40;18.58;;;8.50;;
76053;SDS011;64752;48.870;9.082;2023-02-23T15:13:41;17.85;;;8.95;;
76053;SDS011;64752;48.870;9.082;2023-02-23T15:16:32;15.30;;;9.07;;
76053;SDS011;64752;48.870;9.082;2023-02-23T15:18:50;15.18;;;9.00;;
76053;SDS011;64752;48.870;9.082;2023-02-23T15:21:18;17.42;;;9.18;;
76053;SDS011;64752;48.870;9.082;2023-02-23T15:23:44;16.63;;;10.07;;
76053;SDS011;64752;48.870;9.082;2023-02-23T15:31:31;20.45;;;9.00;;
76053;SDS011;64752;48.870;9.082;2023-02-23T15:33:56;16.75;;;9.88;;
76053;SDS011;64752;48.870;9.082;2023-02-23T15:36:31;17.55;;;9.10;;
76053;SDS011;64752;48.870;9.082;2023-02-23T15:38:58;15.37;;;10.13;;
76053;SDS011;64752;48.870;9.082;2023-02-23T15:41:27;20.25;;;10.00;;
76053;SDS011;64752;48.870;9.082;2023-02-23T15:43:53;16.52;;;9.75;;
76053;SDS011;64752;48.870;9.082;2023-02-23T15:46:25;18.48;;;9.85;;
76053;SDS011;64752;48.870;9.082;2023-02-23T15:48:52;17.83;;;9.95;;
76053;SDS011;64752;48.870;9.082;2023-02-23T15:51:30;16.70;;;9.30;;
76053;SDS011;64752;48.870;9.082;2023-02-23T15:53:56;19.55;;;9.98;;
76053;SDS011;64752;48.870;9.082;2023-02-23T15:56:27;15.20;;;9.50;;
76053;SDS011;64752;48.870;9.082;2023-02-23T15:58:57;32.53;;;18.75;;
76053;SDS011;64752;48.870;9.082;2023-02-23T16:01:26;24.83;;;14.05;;
76053;SDS011;64752;48.870;9.082;2023-02-23T16:06:33;23.75;;;16.05;;
76053;SDS011;64752;48.870;9.082;2023-02-23T16:11:26;22.73;;;14.63;;
76053;SDS011;64752;48.870;9.082;2023-02-23T16:14:00;16.92;;;10.43;;
76053;SDS011;64752;48.870;9.082;2023-02-23T16:16:25;20.77;;;11.80;;
76053;SDS011;64752;48.870;9.082;2023-02-23T16:18:52;23.85;;;12.02;;
76053;SDS011;64752;48.870;9.082;2023-02-23T16:21:19;19.33;;;13.07;;
76053;SDS011;64752;48.870;9.082;2023-02-23T16:28:40;20.90;;;12.45;;
76053;SDS011;64752;48.870;9.082;2023-02-23T16:31:07;19.35;;;10.63;;
76053;SDS011;64752;48.870;9.082;2023-02-23T16:33:49;20.05;;;11.07;;
76053;SDS011;64752;48.870;9.082;2023-02-23T16:36:17;19.92;;;9.85;;
76053;SDS011;64752;48.870;9.082;2023-02-23T16:39:04;15.18;;;9.93;;
76053;SDS011;64752;48.870;9.082;2023-02-23T16:41:31;18.27;;;9.90;;
76053;SDS011;64752;48.870;9.082;2023-02-23T16:43:58;16.48;;;10.10;;
76053;SDS011;64752;48.870;9.082;2023-02-23T16:46:24;21.60;;;9.63;;
76053;SDS011;64752;48.870;9.082;2023-02-23T16:48:54;17.95;;;9.35;;
76053;SDS011;64752;48.870;9.082;2023-02-23T16:51:20;22.60;;;10.60;;
76053;SDS011;64752;48.870;9.082;2023-02-23T16:53:47;15.38;;;9.30;;
76053;SDS011;64752;48.870;9.082;2023-02-23T16:56:16;17.20;;;9.95;;
76053;SDS011;64752;48.870;9.082;2023-02-23T16:58:46;21.63;;;9.75;;
76053;SDS011;64752;48.870;9.082;2023-02-23T17:01:16;18.77;;;10.07;;
76053;SDS011;64752;48.870;9.082;2023-02-23T17:03:42;15.38;;;8.60;;
76053;SDS011;64752;48.870;9.082;2023-02-23T17:06:08;15.00;;;8.93;;
76053;SDS011;64752;48.870;9.082;2023-02-23T17:08:34;15.38;;;9.02;;
76053;SDS011;64752;48.870;9.082;2023-02-23T17:11:02;22.00;;;12.85;;
76053;SDS011;64752;48.870;9.082;2023-02-23T17:13:28;21.25;;;12.27;;
76053;SDS011;64752;48.870;9.082;2023-02-23T17:16:06;19.65;;;10.63;;
76053;SDS011;64752;48.870;9.082;2023-02-23T17:18:33;15.88;;;10.02;;